createdAt,value
2018-05-24T00:00:22.033Z,46.40
2018-05-24T00:02:49.540Z,47.00
2018-05-24T00:05:17.064Z,45.60
2018-05-24T00:07:44.579Z,46.30
2018-05-24T00:10:12.114Z,46.90
2018-05-24T00:12:39.630Z,47.80
2018-05-24T00:15:07.173Z,47.70
2018-05-24T00:17:34.687Z,46.30
2018-05-24T00:20:02.201Z,46.20
2018-05-24T00:22:29.716Z,47.00
2018-05-24T00:24:57.243Z,46.40
2018-05-24T00:27:25.535Z,46.80
2018-05-24T00:29:53.067Z,46.80
2018-05-24T00:32:20.585Z,47.00
2018-05-24T00:34:48.110Z,46.70
2018-05-24T00:37:15.624Z,45.70
2018-05-24T00:39:43.148Z,46.20
2018-05-24T00:42:10.668Z,45.60
2018-05-24T00:44:38.185Z,45.50
2018-05-24T00:47:05.698Z,45.00
2018-05-24T00:49:33.217Z,45.80
2018-05-24T00:52:01.313Z,45.80
2018-05-24T00:54:28.849Z,45.70
2018-05-24T00:56:56.393Z,45.90
2018-05-24T00:59:23.910Z,46.30
2018-05-24T01:01:51.432Z,46.70
2018-05-24T01:04:18.960Z,45.70
2018-05-24T01:06:46.585Z,45.80
2018-05-24T01:09:14.100Z,45.90
2018-05-24T01:11:41.616Z,46.80
2018-05-24T01:14:09.132Z,47.80
2018-05-24T01:16:36.651Z,48.40
2018-05-24T01:19:04.172Z,47.10
2018-05-24T01:21:31.695Z,46.50
2018-05-24T01:23:59.207Z,47.00
2018-05-24T01:26:26.720Z,46.10
2018-05-24T01:28:54.226Z,46.10
2018-05-24T01:31:22.503Z,46.10
2018-05-24T01:33:50.028Z,46.10
2018-05-24T01:36:17.549Z,46.10
2018-05-24T01:38:45.832Z,46.30
2018-05-24T01:41:13.351Z,46.30
2018-05-24T01:43:40.869Z,46.30
2018-05-24T01:46:08.384Z,46.20
2018-05-24T01:48:35.911Z,46.20
2018-05-24T01:51:03.431Z,46.20
2018-05-24T01:53:30.954Z,46.20
2018-05-24T01:55:58.463Z,46.40
2018-05-24T01:58:25.982Z,46.30
2018-05-24T02:00:53.504Z,47.50
2018-05-24T02:03:21.018Z,46.80
2018-05-24T02:05:48.536Z,46.70
2018-05-24T02:08:16.051Z,47.20
2018-05-24T02:10:43.573Z,48.00
2018-05-24T02:13:11.089Z,47.40
2018-05-24T02:15:38.604Z,47.00
2018-05-24T02:18:06.129Z,47.50
2018-05-24T02:20:33.649Z,47.00
2018-05-24T02:23:01.174Z,47.50
2018-05-24T02:25:28.696Z,47.40
2018-05-24T02:27:56.209Z,47.50
2018-05-24T02:30:24.496Z,47.50
2018-05-24T02:32:52.023Z,47.50
2018-05-24T02:35:19.540Z,47.60
2018-05-24T02:37:47.054Z,49.20
2018-05-24T02:40:14.567Z,50.00
2018-05-24T02:42:42.088Z,49.00
2018-05-24T02:45:09.599Z,48.70
2018-05-24T02:47:37.126Z,49.30
2018-05-24T02:50:04.649Z,49.00
2018-05-24T02:52:32.191Z,48.80
2018-05-24T02:54:59.712Z,49.30
2018-05-24T02:57:27.239Z,48.70
2018-05-24T02:59:54.755Z,49.80
2018-05-24T03:02:22.267Z,48.50
2018-05-24T03:04:49.778Z,48.30
2018-05-24T03:07:17.296Z,48.50
2018-05-24T03:09:44.820Z,48.60
2018-05-24T03:12:12.353Z,48.90
2018-05-24T03:14:39.869Z,49.20
2018-05-24T03:17:07.487Z,49.40
2018-05-24T03:19:35.378Z,50.00
2018-05-24T03:22:02.899Z,50.10
2018-05-24T03:24:30.418Z,50.90
2018-05-24T03:26:57.939Z,50.50
2018-05-24T03:29:25.486Z,51.70
2018-05-24T03:31:53.009Z,51.70
2018-05-24T03:34:20.535Z,50.80
2018-05-24T03:36:48.095Z,51.60
2018-05-24T03:39:15.616Z,51.60
2018-05-24T03:41:43.135Z,51.90
2018-05-24T03:44:10.660Z,51.50
2018-05-24T03:46:38.180Z,50.50
2018-05-24T03:49:06.224Z,49.90
2018-05-24T03:51:33.740Z,50.30
2018-05-24T03:54:01.255Z,51.00
2018-05-24T03:56:28.780Z,50.40
2018-05-24T03:59:09.063Z,50.70
2018-05-24T04:04:52.533Z,49.20
2018-05-24T04:07:20.104Z,49.60
2018-05-24T04:09:47.644Z,49.40
2018-05-24T04:12:15.159Z,50.50
2018-05-24T04:14:42.707Z,49.80
2018-05-24T04:17:10.241Z,50.30
2018-05-24T04:19:37.804Z,50.10
2018-05-24T04:22:05.325Z,50.10
2018-05-24T04:24:32.871Z,49.80
2018-05-24T04:27:00.397Z,50.00
2018-05-24T04:29:27.957Z,50.20
2018-05-24T04:31:55.479Z,50.30
2018-05-24T04:34:23.019Z,50.60
2018-05-24T04:36:50.583Z,51.20
2018-05-24T04:39:18.128Z,51.10
2018-05-24T04:41:45.659Z,51.70
2018-05-24T04:44:13.297Z,51.80
2018-05-24T04:46:40.816Z,51.10
2018-05-24T04:49:08.355Z,51.40
2018-05-24T04:51:35.879Z,51.40
2018-05-24T04:54:03.402Z,50.90
2018-05-24T04:56:30.977Z,51.60
2018-05-24T04:58:58.472Z,51.60
2018-05-24T05:01:25.988Z,51.90
2018-05-24T05:03:53.689Z,51.00
2018-05-24T05:06:21.217Z,50.60
2018-05-24T05:08:48.745Z,50.60
2018-05-24T05:11:16.269Z,50.70
2018-05-24T05:13:43.796Z,50.40
2018-05-24T05:16:11.317Z,50.70
2018-05-24T05:18:38.834Z,50.40
2018-05-24T05:21:06.356Z,50.70
2018-05-24T05:23:33.888Z,50.70
2018-05-24T05:26:01.415Z,50.90
2018-05-24T05:28:28.932Z,50.50
2018-05-24T05:30:56.460Z,51.00
2018-05-24T05:33:23.993Z,51.10
2018-05-24T05:35:51.512Z,51.00
2018-05-24T05:38:19.118Z,51.40
2018-05-24T05:40:46.575Z,51.00
2018-05-24T05:43:14.872Z,50.10
2018-05-24T05:45:42.396Z,50.10
2018-05-24T05:48:09.912Z,49.60
2018-05-24T05:50:37.476Z,49.80
2018-05-24T05:53:05.003Z,49.20
2018-05-24T05:55:32.543Z,48.70
2018-05-24T05:58:00.062Z,47.90
2018-05-24T06:00:27.600Z,47.70
2018-05-24T06:02:55.116Z,47.20
2018-05-24T06:05:23.419Z,46.80
2018-05-24T06:07:50.956Z,46.80
2018-05-24T06:10:19.272Z,45.80
2018-05-24T06:12:46.841Z,45.80
2018-05-24T06:15:14.400Z,44.30
2018-05-24T06:17:42.004Z,43.40
2018-05-24T06:20:11.067Z,42.40
2018-05-24T06:22:38.583Z,42.10
2018-05-24T06:25:06.883Z,43.20
2018-05-24T06:27:34.404Z,43.20
2018-05-24T06:30:01.921Z,42.30
2018-05-24T06:32:29.453Z,43.10
2018-05-24T06:34:56.976Z,42.80
2018-05-24T06:37:24.496Z,43.30
2018-05-24T06:39:52.014Z,43.60
2018-05-24T06:42:19.527Z,44.10
2018-05-24T06:44:47.057Z,43.70
2018-05-24T06:47:14.577Z,43.20
2018-05-24T06:49:42.105Z,42.40
2018-05-24T06:52:09.632Z,40.80
2018-05-24T06:54:37.147Z,40.80
2018-05-24T06:57:04.682Z,40.30
2018-05-24T06:59:32.200Z,39.20
2018-05-24T07:01:59.715Z,37.60
2018-05-24T07:04:27.232Z,35.10
2018-05-24T07:06:54.743Z,34.00
2018-05-24T07:09:22.268Z,33.90
2018-05-24T07:11:49.792Z,33.70
2018-05-24T07:14:17.304Z,33.60
2018-05-24T07:16:44.825Z,33.00
2018-05-24T07:19:12.348Z,32.70
2018-05-24T07:21:39.931Z,32.60
2018-05-24T07:24:07.794Z,32.30
2018-05-24T07:26:35.319Z,31.60
2018-05-24T07:29:02.839Z,32.00
2018-05-24T07:31:30.360Z,32.00
2018-05-24T07:33:57.884Z,32.90
2018-05-24T07:36:26.180Z,33.10
2018-05-24T07:38:53.758Z,33.60
2018-05-24T07:41:21.276Z,34.60
2018-05-24T07:43:48.787Z,34.60
2018-05-24T07:46:16.313Z,34.70
2018-05-24T07:48:43.830Z,34.10
2018-05-24T07:51:11.362Z,34.30
2018-05-24T07:53:38.875Z,34.80
2018-05-24T07:56:06.429Z,34.90
2018-05-24T07:58:33.959Z,34.80
2018-05-24T08:01:02.269Z,33.90
2018-05-24T08:03:29.797Z,33.90
2018-05-24T08:05:57.330Z,34.20
2018-05-24T08:08:24.858Z,33.60
2018-05-24T09:35:49.420Z,31.00
2018-05-24T09:38:17.709Z,34.60
2018-05-24T09:40:45.229Z,34.60
2018-05-24T09:43:12.755Z,35.40
2018-05-24T09:45:40.281Z,36.50
2018-05-24T09:48:07.800Z,36.90
2018-05-24T09:50:35.316Z,36.40
2018-05-24T09:53:02.856Z,36.70
2018-05-24T09:55:30.369Z,36.90
2018-05-24T09:57:57.884Z,37.20
2018-05-24T10:00:25.392Z,36.80
2018-05-24T10:02:52.902Z,37.10
2018-05-24T10:05:20.413Z,36.80
2018-05-24T10:07:47.932Z,36.90
2018-05-24T10:10:15.452Z,37.40
2018-05-24T10:12:42.980Z,37.30
2018-05-24T10:15:10.492Z,36.80
2018-05-24T10:17:38.839Z,37.90
2018-05-24T10:20:06.366Z,38.00
2018-05-24T10:22:33.883Z,38.60
2018-05-24T10:25:01.392Z,38.20
2018-05-24T10:27:28.915Z,38.40
2018-05-24T10:29:56.432Z,39.10
2018-05-24T10:32:23.976Z,39.20
2018-05-24T10:34:51.495Z,39.00
2018-05-24T10:37:19.008Z,39.90
2018-05-24T10:39:46.533Z,40.20
2018-05-24T10:42:14.064Z,41.20
2018-05-24T10:44:41.589Z,42.40
2018-05-24T10:47:11.576Z,43.30
2018-05-24T10:49:39.099Z,44.50
2018-05-24T10:52:06.616Z,45.20
2018-05-24T10:54:34.149Z,44.80
2018-05-24T10:57:01.677Z,44.00
2018-05-24T10:59:29.213Z,43.90
2018-05-24T11:01:56.740Z,44.30
2018-05-24T11:04:24.257Z,43.40
2018-05-24T11:06:51.780Z,42.50
2018-05-24T11:09:19.295Z,42.60
2018-05-24T11:11:46.830Z,41.60
2018-05-24T11:14:15.133Z,41.80
2018-05-24T11:16:42.668Z,41.80
2018-05-24T11:19:10.193Z,42.90
2018-05-24T11:21:37.724Z,42.60
2018-05-24T11:24:05.241Z,42.20
2018-05-24T11:26:32.766Z,42.90
2018-05-24T11:29:00.289Z,43.30
2018-05-24T11:31:27.808Z,42.50
2018-05-24T11:33:55.327Z,42.40
2018-05-24T11:36:22.843Z,42.70
2018-05-24T11:38:50.372Z,42.70
2018-05-24T11:41:17.899Z,43.80
2018-05-24T11:43:45.420Z,43.50
2018-05-24T11:46:12.940Z,43.40
2018-05-24T11:48:40.463Z,44.00
2018-05-24T11:51:07.987Z,44.90
2018-05-24T11:53:35.508Z,45.10
2018-05-24T11:56:03.023Z,45.40
2018-05-24T11:58:30.546Z,45.80
2018-05-24T12:00:58.059Z,45.40
2018-05-24T12:03:26.340Z,46.10
2018-05-24T12:05:53.862Z,46.10
2018-05-24T12:08:21.415Z,46.10
2018-05-24T12:10:48.951Z,46.50
2018-05-24T12:13:16.471Z,46.80
2018-05-24T12:15:44.006Z,47.00
2018-05-24T12:18:11.532Z,47.40
2018-05-24T12:20:39.044Z,47.60
2018-05-24T12:23:06.567Z,47.30
2018-05-24T12:25:34.088Z,47.60
2018-05-24T12:28:01.619Z,48.50
2018-05-24T12:30:29.131Z,49.10
2018-05-24T12:32:56.650Z,48.90
2018-05-24T12:35:24.284Z,48.70
2018-05-24T12:37:51.708Z,49.20
2018-05-24T12:40:19.236Z,49.70
2018-05-24T12:42:46.748Z,49.00
2018-05-24T12:45:14.266Z,49.40
2018-05-24T12:47:41.789Z,49.40
2018-05-24T12:50:09.312Z,49.80
2018-05-24T12:52:36.844Z,49.90
2018-05-24T12:55:04.372Z,50.30
2018-05-24T12:57:31.889Z,51.00
2018-05-24T12:59:59.412Z,51.80
2018-05-24T13:02:26.942Z,52.30
2018-05-24T13:04:54.462Z,53.10
2018-05-24T13:07:21.992Z,52.90
2018-05-24T13:09:50.284Z,53.20
2018-05-24T13:12:17.813Z,53.20
2018-05-24T13:14:45.340Z,53.40
2018-05-24T13:17:12.854Z,52.90
2018-05-24T13:19:41.145Z,53.00
2018-05-24T13:22:08.665Z,53.00
2018-05-24T13:24:36.366Z,53.60
2018-05-24T13:27:03.838Z,54.00
2018-05-24T13:29:31.360Z,53.60
2018-05-24T13:31:58.884Z,53.60
2018-05-24T13:34:26.419Z,53.70
2018-05-24T13:36:53.953Z,53.60
2018-05-24T13:39:21.471Z,53.60
2018-05-24T13:41:49.000Z,53.60
2018-05-24T13:44:16.548Z,53.80
2018-05-24T13:46:44.105Z,53.60
2018-05-24T13:49:11.628Z,54.10
2018-05-24T13:51:39.155Z,54.80
2018-05-24T13:54:06.691Z,55.10
2018-05-24T13:56:34.214Z,55.50
2018-05-24T13:59:02.513Z,56.50
2018-05-24T14:01:30.118Z,56.40
2018-05-24T14:03:57.583Z,56.60
2018-05-24T14:06:25.104Z,56.90
2018-05-24T14:08:52.624Z,57.20
2018-05-24T14:11:20.925Z,57.80
2018-05-24T14:13:48.452Z,57.70
2018-05-24T14:16:15.972Z,57.80
2018-05-24T14:18:43.492Z,57.80
2018-05-24T14:21:11.015Z,57.80
2018-05-24T14:23:38.539Z,58.10
2018-05-24T14:26:06.086Z,57.90
2018-05-24T14:28:33.606Z,58.30
2018-05-24T14:31:01.130Z,58.80
2018-05-24T14:33:28.651Z,58.90
2018-05-24T14:35:56.942Z,59.20
2018-05-24T14:38:24.479Z,59.20
2018-05-24T14:40:52.015Z,59.10
2018-05-24T14:43:19.548Z,59.40
2018-05-24T14:45:47.071Z,59.80
2018-05-24T14:48:14.598Z,59.80
2018-05-24T14:50:42.488Z,60.00
2018-05-24T14:53:10.784Z,61.00
2018-05-24T14:55:38.323Z,61.00
2018-05-24T14:58:05.852Z,61.50
2018-05-24T15:00:33.376Z,62.20
2018-05-24T15:03:00.905Z,62.80
2018-05-24T15:05:28.453Z,62.50
2018-05-24T15:07:55.978Z,63.10
2018-05-24T15:10:23.499Z,63.20
2018-05-24T15:12:51.016Z,63.80
2018-05-24T15:15:18.544Z,63.70
2018-05-24T15:17:46.067Z,63.70
2018-05-24T15:20:13.608Z,64.10
2018-05-24T15:22:41.136Z,64.50
2018-05-24T15:25:08.695Z,64.60
2018-05-24T15:27:36.220Z,65.20
2018-05-24T15:30:03.744Z,65.30
2018-05-24T15:32:31.274Z,64.40
2018-05-24T15:34:58.797Z,63.90
2018-05-24T15:37:26.335Z,63.40
2018-05-24T15:39:53.867Z,63.50
2018-05-24T15:42:21.392Z,63.50
2018-05-24T15:44:48.934Z,63.10
2018-05-24T15:47:16.452Z,62.30
2018-05-24T15:49:43.974Z,61.50
2018-05-24T15:52:11.513Z,61.60
2018-05-24T15:54:39.046Z,61.00
2018-05-24T15:57:06.564Z,60.40
2018-05-24T15:59:34.104Z,60.20
2018-05-24T16:02:01.631Z,60.20
2018-05-24T16:04:29.164Z,59.80
2018-05-24T16:06:56.691Z,59.70
2018-05-24T16:09:24.976Z,59.70
2018-05-24T16:11:52.500Z,59.70
2018-05-24T16:14:20.028Z,59.60
2018-05-24T16:16:47.623Z,59.40
2018-05-24T16:19:15.155Z,59.50
2018-05-24T16:21:42.679Z,59.60
2018-05-24T16:24:10.214Z,59.60
2018-05-24T16:26:37.726Z,59.10
2018-05-24T16:29:05.258Z,59.20
2018-05-24T16:31:32.795Z,58.90
2018-05-24T16:34:01.106Z,59.20
2018-05-24T16:36:28.632Z,59.20
2018-05-24T16:38:56.163Z,59.20
2018-05-24T16:41:23.931Z,59.00
2018-05-24T16:43:51.460Z,59.40
2018-05-24T16:46:18.974Z,59.70
2018-05-24T16:48:46.499Z,60.00
2018-05-24T16:51:14.034Z,59.80
2018-05-24T16:53:41.599Z,59.90
2018-05-24T16:56:09.121Z,60.30
2018-05-24T16:58:36.651Z,59.90
2018-05-24T17:01:04.173Z,60.00
2018-05-24T17:03:31.700Z,60.00
2018-05-24T17:05:59.235Z,60.20
2018-05-24T17:08:26.752Z,60.10
2018-05-24T17:10:54.270Z,59.90
2018-05-24T17:13:21.794Z,60.10
2018-05-24T17:15:49.324Z,59.80
2018-05-24T17:18:16.851Z,60.00
2018-05-24T17:20:44.371Z,60.20
2018-05-24T17:23:11.921Z,60.10
2018-05-24T17:25:39.445Z,60.00
2018-05-24T17:28:07.742Z,59.80
2018-05-24T17:30:35.272Z,59.80
2018-05-24T17:33:02.801Z,59.40
2018-05-24T17:35:30.323Z,59.30
2018-05-24T17:37:57.856Z,59.40
2018-05-24T17:40:25.392Z,59.50
2018-05-24T17:42:52.912Z,59.60
2018-05-24T17:45:20.435Z,59.80
2018-05-24T17:47:47.957Z,59.80
2018-05-24T17:50:15.477Z,59.80
2018-05-24T17:52:42.999Z,60.10
2018-05-24T17:55:10.521Z,60.30
2018-05-24T17:57:38.050Z,60.20
2018-05-24T18:00:05.567Z,60.50
2018-05-24T18:02:33.116Z,60.50
2018-05-24T18:05:00.639Z,60.80
2018-05-24T18:07:28.198Z,61.20
2018-05-24T18:09:55.760Z,61.60
2018-05-24T18:12:23.300Z,61.20
2018-05-24T18:14:50.875Z,61.20
2018-05-24T18:17:18.415Z,61.30
2018-05-24T18:19:45.949Z,61.40
2018-05-24T18:22:13.491Z,61.50
2018-05-24T18:24:41.011Z,61.80
2018-05-24T18:27:08.557Z,62.10
2018-05-24T18:29:36.087Z,62.20
2018-05-24T18:32:03.633Z,62.40
2018-05-24T18:34:31.164Z,62.50
2018-05-24T18:36:58.691Z,62.70
2018-05-24T18:39:26.212Z,63.10
2018-05-24T18:41:53.735Z,63.40
2018-05-24T18:44:21.268Z,63.70
2018-05-24T18:46:48.792Z,64.00
2018-05-24T18:49:16.316Z,64.30
2018-05-24T18:51:43.836Z,64.50
2018-05-24T18:54:11.355Z,64.40
2018-05-24T18:56:38.880Z,64.30
2018-05-24T18:59:06.411Z,64.10
2018-05-24T19:01:33.948Z,63.80
2018-05-24T19:04:01.476Z,63.60
2018-05-24T19:06:29.008Z,63.70
2018-05-24T19:08:56.540Z,64.40
2018-05-24T19:11:24.058Z,63.50
2018-05-24T19:13:51.583Z,63.40
2018-05-24T19:16:19.119Z,63.40
2018-05-24T19:18:46.644Z,63.60
2018-05-24T19:21:14.177Z,63.70
2018-05-24T19:23:41.715Z,63.30
2018-05-24T19:26:09.236Z,63.20
2018-05-24T19:28:36.760Z,63.40
2018-05-24T19:31:04.283Z,63.30
2018-05-24T19:33:31.816Z,63.30
2018-05-24T19:35:59.339Z,63.10
2018-05-24T19:38:27.628Z,62.60
2018-05-24T19:40:55.168Z,62.60
2018-05-24T19:43:22.697Z,62.80
2018-05-24T19:45:50.508Z,62.50
2018-05-24T19:48:18.033Z,62.50
2018-05-24T19:50:45.563Z,63.00
2018-05-24T19:53:13.088Z,63.00
2018-05-24T19:55:41.376Z,63.30
2018-05-24T19:58:08.925Z,63.20
2018-05-24T20:00:36.450Z,63.00
2018-05-24T20:03:04.021Z,62.60
2018-05-24T20:05:31.552Z,62.70
2018-05-24T20:07:59.096Z,62.80
2018-05-24T20:10:26.631Z,63.40
2018-05-24T20:12:54.153Z,64.00
2018-05-24T20:15:21.694Z,64.40
2018-05-24T20:17:49.216Z,64.50
2018-05-24T20:20:16.739Z,64.40
2018-05-24T20:22:45.079Z,65.30
2018-05-24T20:25:12.604Z,65.40
2018-05-24T20:27:40.126Z,66.20
2018-05-24T20:30:07.655Z,66.30
2018-05-24T20:32:35.176Z,67.50
2018-05-24T20:35:02.699Z,68.00
2018-05-24T20:37:30.219Z,68.10
2018-05-24T20:39:57.749Z,68.60
2018-05-24T20:42:25.279Z,69.50
2018-05-24T20:44:52.808Z,69.50
2018-05-24T20:47:20.330Z,70.60
2018-05-24T20:49:47.856Z,70.50
2018-05-24T20:52:15.384Z,69.60
2018-05-24T20:54:42.903Z,70.30
2018-05-24T20:57:10.418Z,71.00
2018-05-24T20:59:37.935Z,70.80
2018-05-24T21:02:05.451Z,71.70
2018-05-24T21:04:32.979Z,71.80
2018-05-24T21:07:00.516Z,72.20
2018-05-24T21:09:28.039Z,73.00
2018-05-24T21:11:55.565Z,73.40
2018-05-24T21:14:23.109Z,73.20
2018-05-24T21:16:50.644Z,74.40
2018-05-24T21:19:18.191Z,75.50
2018-05-24T21:21:45.715Z,76.00
2018-05-24T21:24:13.275Z,77.90
2018-05-24T21:26:40.812Z,79.40
2018-05-24T21:29:08.353Z,80.90
2018-05-24T21:31:35.871Z,81.00
2018-05-24T21:34:03.428Z,80.80
2018-05-24T21:36:30.960Z,81.00
2018-05-24T21:38:58.513Z,81.20
2018-05-24T21:41:26.038Z,80.80
2018-05-24T21:43:53.578Z,81.40
2018-05-24T21:46:21.108Z,81.60
2018-05-24T21:48:48.635Z,81.80
2018-05-24T21:51:16.165Z,82.00
2018-05-24T21:53:43.716Z,81.70
2018-05-24T21:56:11.248Z,81.70
2018-05-24T21:58:38.768Z,81.70
2018-05-24T22:01:06.300Z,81.50
2018-05-24T22:03:33.832Z,81.50
2018-05-24T22:06:01.356Z,81.30
2018-05-24T22:08:28.875Z,81.10
2018-05-24T22:10:56.459Z,81.30
2018-05-24T22:13:23.938Z,81.40
2018-05-24T22:15:51.463Z,81.50
2018-05-24T22:18:18.995Z,81.80
2018-05-24T22:20:46.529Z,82.00
2018-05-24T22:23:14.059Z,82.00
2018-05-24T22:25:41.584Z,82.20
2018-05-24T22:28:09.116Z,81.50
2018-05-24T22:30:36.644Z,81.40
2018-05-24T22:33:04.181Z,81.70
2018-05-24T22:35:32.066Z,81.90
2018-05-24T22:37:59.596Z,81.50
2018-05-24T22:40:27.129Z,81.60
2018-05-24T22:42:54.646Z,81.20
2018-05-24T22:45:22.176Z,81.20
2018-05-24T22:47:49.716Z,81.40
2018-05-24T22:50:17.244Z,81.20
2018-05-24T22:52:45.535Z,81.40
2018-05-24T22:55:13.064Z,81.30
2018-05-24T22:57:40.599Z,81.20
2018-05-24T23:00:08.110Z,81.40
2018-05-24T23:02:35.638Z,81.40
2018-05-24T23:05:03.197Z,81.40
2018-05-24T23:07:30.713Z,81.40
2018-05-24T23:09:58.232Z,81.10
2018-05-24T23:12:25.762Z,80.80
2018-05-24T23:14:53.287Z,80.70
2018-05-24T23:17:20.818Z,80.60
2018-05-24T23:19:49.101Z,80.40
2018-05-24T23:22:28.355Z,80.30
2018-05-24T23:24:56.407Z,80.10
2018-05-24T23:27:23.927Z,79.80
2018-05-24T23:29:51.479Z,80.20
2018-05-24T23:32:19.000Z,79.70
2018-05-24T23:34:46.528Z,79.40
2018-05-24T23:37:14.069Z,79.70
2018-05-24T23:39:41.591Z,80.00
2018-05-24T23:42:09.112Z,80.50
2018-05-24T23:44:36.648Z,80.50
2018-05-24T23:47:04.172Z,79.80
2018-05-24T23:49:31.700Z,79.50
2018-05-24T23:51:59.218Z,79.70
2018-05-24T23:54:26.742Z,79.50
2018-05-24T23:56:54.267Z,79.50
2018-05-24T23:59:21.801Z,79.80
